EPPO

Poznań-Ławica Airport

Poznań, Poland
METAR EPPO 140030Z 06003KT 9999 OVC018 M01/M03 Q1025
Observed Flight Rules
Dec-14 @ 00:30 UTC (15 minutes ago) Marginal Visual Flight Rules
Wind Visibility Clouds
60° at 3 knots 10,000+ meters
  • Overcast at 1,800' AGL
Temperatures Readings
Current -1°C / 30°F
Dewpoint -3°C / 27°F
Humidity 86%
Altimeter 30.27" Hg
Pressure 1025 hPa
Elevation 92
METAR EPPO 140030Z 06003KT 9999 OVC018 M01/M03 Q1025
Observed Flight Rules
Dec-14 @ 00:30 UTC
(15 minutes ago)
MVFR
Wind Visibility
60° at 3 knots 10,000+ meters
Clouds
  • Overcast at 1,800' AGL
Temperature Dewpoint
-1°C / 30°F -3°C / 27°F
Humidity Altimeter Pressure
86% 30.27" Hg 1025 hPa